This is the latest recevied weather packets stored in our database for station/object KI5NYZ-13. If no packets are shown the sender has not sent any weather packets the latest 10 day(s).
| Time | Temp. | Humidity | Pressure | Rain* | Wind** | Luminosity | Snow |
|---|---|---|---|---|---|---|---|
| 1777961411 | 20° C | 33% | 1003.6 hPa | 0 mm | - | - | - |
| 1777959610 | 20.56° C | 32% | 1003.7 hPa | 0 mm | - | - | - |
| 1777957809 | 20.56° C | 30% | 1003.4 hPa | 0 mm | - | - | - |
| 1777956008 | 21.67° C | 27% | 1002.9 hPa | 0 mm | - | - | - |
| 1777865642 | 17.78° C | 51% | 1011.5 hPa | 0 mm | - | - | - |
| 1777863841 | 18.33° C | 49% | 1011.3 hPa | 0 mm | - | - | - |
| 1777862040 | 18.89° C | 47% | 1011.1 hPa | 0 mm | - | - | - |
| 1777860240 | 20.56° C | 42% | 1010.4 hPa | 0 mm | - | - | - |
| 1777858439 | 22.22° C | 37% | 1009.7 hPa | 0 mm | - | - | - |
| 1777856638 | 23.33° C | 34% | 1009.3 hPa | 0 mm | - | - | - |
| 1777854836 | 23.33° C | 33% | 1009.5 hPa | 0 mm | - | - | - |
| 1777853036 | 23.89° C | 32% | 1009.6 hPa | 0 mm | - | - | - |
| 1777851234 | 23.33° C | 32% | 1010 hPa | 0 mm | - | - | - |
| 1777849434 | 23.89° C | 30% | 1009.9 hPa | 0 mm | - | - | - |
| 1777847632 | 23.89° C | 30% | 1010.2 hPa | 0 mm | - | - | - |
| 1777845832 | 23.89° C | 31% | 1010.7 hPa | 0 mm | - | - | - |
| 1777844030 | 23.89° C | 31% | 1011.3 hPa | 0 mm | - | - | - |
| 1777842230 | 23.33° C | 32% | 1012.3 hPa | 0 mm | - | - | - |
| 1777840428 | 23.33° C | 32% | 1012.6 hPa | 0 mm | - | - | - |
| 1777838627 | 23.89° C | 32% | 1013.1 hPa | 0 mm | - | - | - |
| 1777836827 | 23.33° C | 33% | 1014 hPa | 0 mm | - | - | - |
| 1777835025 | 23.33° C | 34% | 1014.4 hPa | 0 mm | - | - | - |
| 1777833225 | 22.22° C | 35% | 1015.5 hPa | 0 mm | - | - | - |
| 1777831423 | 21.67° C | 37% | 1016.3 hPa | 0 mm | - | - | - |
| 1777829622 | 21.11° C | 39% | 1017 hPa | 0 mm | - | - | - |
* Rain latest hour (hover to see other rain measurements)
** Current wind speed in m/s (hover to see current wind gust speed)